Time;durP1;ratioP1;P1;durP2;ratioP2;P2;SDS_P1;SDS_P2;PMS_P1;PMS_P2;Temp;Humidity;BMP_temperature;BMP_pressure;BME280_temperature;BME280_humidity;BME280_pressure;Samples;Min_cycle;Max_cycle;Signal;HPM_P1;HPM_P2
2023/11/14 00:00:11;;;;;;;13.50;8.30;;;;;;;12.21;47.32;99580.85;108106;1254;70384;-68
2023/11/14 00:02:38;;;;;;;12.20;7.50;;;;;;;12.29;47.54;99576.55;108096;1254;71881;-67
2023/11/14 00:05:06;;;;;;;17.60;8.60;;;;;;;12.97;46.54;99574.29;108070;1254;61488;-67
2023/11/14 00:07:34;;;;;;;16.50;9.80;;;;;;;13.23;45.73;99573.20;108073;1253;59785;-67
2023/11/14 00:10:03;;;;;;;17.80;10.50;;;;;;;13.13;45.90;99570.08;108099;1254;73846;-67
2023/11/14 00:12:31;;;;;;;20.90;11.50;;;;;;;13.12;45.91;99572.21;108110;1252;70717;-67
2023/11/14 00:14:58;;;;;;;19.60;11.00;;;;;;;13.11;45.66;99572.46;108106;1255;72488;-67
2023/11/14 00:17:25;;;;;;;21.10;11.40;;;;;;;13.17;45.71;99568.61;108057;1253;60440;-66
2023/11/14 00:19:54;;;;;;;26.00;12.10;;;;;;;13.07;45.83;99566.33;108079;1253;60329;-67
2023/11/14 00:22:21;;;;;;;20.70;11.70;;;;;;;12.86;46.03;99564.71;108056;1253;72629;-68
2023/11/14 00:24:49;;;;;;;21.80;12.10;;;;;;;12.80;46.38;99559.91;108029;1254;69183;-68
2023/11/14 00:27:17;;;;;;;23.30;12.30;;;;;;;12.94;46.05;99561.09;108017;1256;72437;-67
2023/11/14 00:29:45;;;;;;;17.80;10.20;;;;;;;13.02;46.03;99561.16;108020;1254;60319;-68
2023/11/14 00:32:12;;;;;;;21.00;12.00;;;;;;;13.12;45.82;99561.64;108043;1254;59185;-67
2023/11/14 00:34:40;;;;;;;16.20;8.80;;;;;;;13.08;45.69;99561.15;108145;1252;73767;-67
2023/11/14 00:37:07;;;;;;;23.30;12.50;;;;;;;13.17;45.67;99566.83;107991;1253;68964;-67
2023/11/14 00:39:36;;;;;;;25.40;13.80;;;;;;;13.14;45.60;99556.64;108027;1254;72434;-65
2023/11/14 00:42:03;;;;;;;17.50;10.60;;;;;;;13.19;45.39;99554.23;108042;1254;60889;-67
2023/11/14 00:44:31;;;;;;;23.70;12.50;;;;;;;13.00;45.59;99553.02;107988;1253;60501;-67
2023/11/14 00:46:58;;;;;;;17.20;9.70;;;;;;;12.87;45.80;99548.63;108074;1254;73764;-67
2023/11/14 00:49:26;;;;;;;23.20;10.90;;;;;;;12.76;46.09;99549.94;107963;1254;68946;-67
2023/11/14 00:51:57;;;;;;;20.10;11.20;;;;;;;12.82;46.06;99553.66;107995;1257;71460;-67
2023/11/14 00:54:25;;;;;;;16.60;9.30;;;;;;;12.73;46.26;99553.24;108078;1254;59800;-67
2023/11/14 00:56:53;;;;;;;28.10;13.00;;;;;;;12.50;46.92;99555.20;108039;1253;59249;-67
2023/11/14 00:59:20;;;;;;;22.30;12.00;;;;;;;12.81;46.14;99547.88;108051;1253;73848;-67
2023/11/14 01:01:48;;;;;;;21.50;11.30;;;;;;;12.87;46.22;99540.48;108112;1254;69631;-67
2023/11/14 01:04:18;;;;;;;23.40;13.60;;;;;;;12.72;46.39;99545.05;108095;1253;72794;-67
2023/11/14 01:06:46;;;;;;;18.00;10.40;;;;;;;12.59;46.73;99538.53;107957;1254;61178;-68
2023/11/14 01:09:13;;;;;;;22.70;12.20;;;;;;;12.66;46.74;99536.20;107935;1254;60883;-67
2023/11/14 01:11:41;;;;;;;20.90;11.90;;;;;;;12.76;46.43;99525.27;107927;1254;73921;-66
2023/11/14 01:14:08;;;;;;;23.40;12.10;;;;;;;12.75;46.61;99521.61;108053;1254;70044;-63
2023/11/14 01:16:36;;;;;;;26.70;12.50;;;;;;;12.93;46.37;99520.27;107876;1256;71957;-66
2023/11/14 01:19:03;;;;;;;20.30;11.40;;;;;;;12.93;46.11;99520.25;108108;1254;60851;-65
2023/11/14 01:21:31;;;;;;;21.80;11.60;;;;;;;13.05;45.90;99513.40;107962;1254;60526;-66
2023/11/14 01:23:59;;;;;;;20.10;11.70;;;;;;;12.91;46.10;99511.39;107969;1254;71584;-67
2023/11/14 01:26:33;;;;;;;21.70;10.90;;;;;;;12.86;45.95;99515.71;108037;1254;68874;-65
2023/11/14 01:29:00;;;;;;;27.40;13.00;;;;;;;12.86;46.23;99510.08;108053;1256;72807;-66
2023/11/14 01:31:31;;;;;;;23.40;12.80;;;;;;;12.79;46.23;99509.92;107916;1257;60026;-67
2023/11/14 01:33:58;;;;;;;22.00;10.60;;;;;;;12.94;45.96;99505.04;108026;1254;60395;-66
2023/11/14 01:36:25;;;;;;;22.70;11.60;;;;;;;12.85;46.12;99502.25;108101;1253;75925;-67
2023/11/14 01:38:53;;;;;;;20.90;10.90;;;;;;;12.77;46.12;99506.67;108027;1253;69515;-68
2023/11/14 01:41:21;;;;;;;23.40;12.30;;;;;;;12.77;46.25;99514.27;108076;1254;72476;-67
2023/11/14 01:43:48;;;;;;;25.70;13.30;;;;;;;12.67;46.28;99517.47;108050;1254;59559;-67
2023/11/14 01:46:16;;;;;;;24.50;13.20;;;;;;;12.44;46.65;99521.91;108071;1254;60711;-67
2023/11/14 01:48:50;;;;;;;27.50;12.20;;;;;;;12.39;46.83;99504.08;108082;1254;73030;-66
2023/11/14 01:51:19;;;;;;;24.50;12.30;;;;;;;12.32;46.91;99501.42;108001;1254;70127;-68
2023/11/14 01:53:48;;;;;;;22.70;12.20;;;;;;;12.20;47.40;99499.81;108059;1254;72758;-67
2023/11/14 01:56:16;;;;;;;24.90;12.80;;;;;;;12.20;47.44;99504.88;107931;1254;60808;-66
2023/11/14 01:58:43;;;;;;;24.20;12.50;;;;;;;12.04;47.62;99493.98;107794;1253;60441;-66
2023/11/14 02:01:13;;;;;;;25.10;14.20;;;;;;;11.84;48.22;99502.70;107894;1254;72603;-66
2023/11/14 02:03:41;;;;;;;26.80;14.20;;;;;;;11.96;47.93;99503.55;107887;1254;70599;-67
2023/11/14 02:06:09;;;;;;;23.40;12.50;;;;;;;11.99;47.83;99498.48;107926;1254;71283;-66
2023/11/14 02:08:38;;;;;;;26.90;14.50;;;;;;;12.04;47.70;99504.21;107917;1254;60326;-65
2023/11/14 02:11:06;;;;;;;31.10;14.80;;;;;;;11.94;47.51;99495.38;108144;1253;60439;-67
2023/11/14 02:13:34;;;;;;;27.50;12.90;;;;;;;11.98;47.16;99492.56;108124;1254;76129;-66
2023/11/14 02:16:02;;;;;;;22.60;13.50;;;;;;;12.00;46.75;99493.84;108050;1253;68820;-67
2023/11/14 02:18:29;;;;;;;23.30;12.70;;;;;;;11.86;46.70;99492.41;108039;1254;71233;-67
2023/11/14 02:20:57;;;;;;;26.40;13.40;;;;;;;11.82;46.72;99483.27;108035;1259;60415;-67
2023/11/14 02:23:26;;;;;;;27.60;13.90;;;;;;;11.81;46.76;99484.76;108163;1254;60514;-66
2023/11/14 02:25:53;;;;;;;21.70;12.30;;;;;;;11.60;47.24;99483.39;108118;1254;73846;-67
2023/11/14 02:28:21;;;;;;;24.80;13.60;;;;;;;11.18;48.05;99486.38;108024;1253;69027;-66
2023/11/14 02:30:48;;;;;;;20.20;12.00;;;;;;;10.47;49.46;99493.48;108007;1254;71285;-67
2023/11/14 02:33:16;;;;;;;32.80;14.40;;;;;;;10.38;49.92;99496.87;107954;1254;60277;-67
2023/11/14 02:35:43;;;;;;;23.50;13.10;;;;;;;10.11;50.14;99492.46;108059;1254;60209;-67
2023/11/14 02:38:11;;;;;;;23.20;12.60;;;;;;;9.98;50.67;99490.61;108077;1252;75821;-67
2023/11/14 02:40:38;;;;;;;23.50;12.60;;;;;;;9.94;50.96;99489.39;108058;1258;69964;-67
2023/11/14 02:43:06;;;;;;;22.90;13.10;;;;;;;10.35;50.27;99485.28;108083;1254;72786;-66
2023/11/14 02:45:33;;;;;;;23.20;13.60;;;;;;;10.40;50.25;99482.59;108089;1254;60283;-67
2023/11/14 02:48:01;;;;;;;35.60;17.50;;;;;;;9.92;51.33;99480.52;108076;1253;59834;-67
2023/11/14 02:50:33;;;;;;;29.30;14.50;;;;;;;9.79;51.88;99475.14;108086;1254;72911;-67
2023/11/14 02:53:00;;;;;;;30.20;16.30;;;;;;;9.91;51.78;99473.92;108066;1254;69845;-67
2023/11/14 02:55:28;;;;;;;27.80;14.10;;;;;;;10.07;51.33;99475.30;108037;1254;71205;-67
2023/11/14 02:57:55;;;;;;;24.70;13.60;;;;;;;10.14;51.35;99479.54;108086;1254;59609;-67
2023/11/14 03:00:23;;;;;;;28.60;13.70;;;;;;;10.02;51.63;99481.15;108092;1254;60502;-66
2023/11/14 03:02:51;;;;;;;27.30;13.00;;;;;;;10.06;51.62;99480.93;107994;1253;73836;-66
2023/11/14 03:05:18;;;;;;;25.30;14.00;;;;;;;10.03;51.58;99478.27;108067;1259;70009;-66
2023/11/14 03:07:47;;;;;;;25.90;14.70;;;;;;;10.06;51.34;99476.41;108039;1254;71403;-68
2023/11/14 03:10:14;;;;;;;24.10;13.80;;;;;;;9.99;51.74;99469.71;107949;1254;63084;-67
2023/11/14 03:12:42;;;;;;;28.70;16.40;;;;;;;9.97;52.00;99469.27;108058;1254;60293;-67
2023/11/14 03:15:09;;;;;;;27.80;14.80;;;;;;;9.79;52.57;99464.63;107989;1254;73780;-66
2023/11/14 03:17:37;;;;;;;29.50;14.30;;;;;;;9.90;52.61;99471.31;108062;1254;70730;-66
2023/11/14 03:20:06;;;;;;;26.70;14.10;;;;;;;10.05;52.27;99477.67;108042;1254;72704;-66
2023/11/14 03:22:36;;;;;;;28.80;14.60;;;;;;;9.72;52.80;99481.77;108062;1252;60865;-67
2023/11/14 03:25:04;;;;;;;32.70;15.00;;;;;;;9.49;53.19;99480.99;107873;1259;182416;-67
2023/11/14 03:29:17;;;;;;;27.30;15.10;;;;;;;6.36;63.37;99492.95;104700;1294;600813;-67
2023/11/14 03:31:44;;;;;;;26.80;14.80;;;;;;;8.05;57.29;99486.36;107694;1259;59297;-66
2023/11/14 03:34:11;;;;;;;21.90;12.00;;;;;;;7.92;57.20;99487.52;107708;1259;59742;-66
2023/11/14 03:36:38;;;;;;;26.20;14.70;;;;;;;7.72;57.58;99486.98;107718;1259;72041;-67
2023/11/14 03:39:05;;;;;;;25.70;13.80;;;;;;;7.78;57.38;99484.38;107612;1260;69211;-67
2023/11/14 03:41:31;;;;;;;26.30;13.60;;;;;;;7.70;57.61;99479.23;107503;1256;215525;-67
2023/11/14 03:43:58;;;;;;;32.90;16.40;;;;;;;7.66;57.43;99484.60;107724;1257;59143;-67
2023/11/14 03:46:25;;;;;;;20.60;12.50;;;;;;;7.62;57.63;99483.37;107775;1257;58707;-66
2023/11/14 03:48:51;;;;;;;30.90;15.70;;;;;;;7.65;57.44;99481.52;107753;1255;72794;-67
2023/11/14 03:51:18;;;;;;;26.30;15.50;;;;;;;7.69;57.12;99487.82;107769;1256;70332;-68
2023/11/14 03:53:45;;;;;;;21.80;13.40;;;;;;;7.75;57.44;99485.15;107782;1256;72333;-67
2023/11/14 03:56:11;;;;;;;28.30;15.90;;;;;;;7.75;57.17;99486.37;107730;1260;59992;-66
2023/11/14 03:58:39;;;;;;;25.60;14.80;;;;;;;7.59;57.45;99482.59;107675;1257;59483;-67
2023/11/14 04:01:06;;;;;;;32.60;18.00;;;;;;;7.45;58.01;99480.11;107768;1256;71987;-67
2023/11/14 04:03:33;;;;;;;29.30;16.20;;;;;;;7.47;58.23;99466.59;107851;1256;69230;-67
2023/11/14 04:06:00;;;;;;;26.60;15.20;;;;;;;7.47;58.12;99453.48;107881;1257;71224;-67
2023/11/14 04:08:27;;;;;;;39.90;18.70;;;;;;;7.58;57.90;99438.09;107842;1256;60690;-66
2023/11/14 04:10:54;;;;;;;41.50;20.70;;;;;;;7.63;57.63;99433.02;107807;1256;59512;-67
2023/11/14 04:13:21;;;;;;;43.60;22.70;;;;;;;7.75;57.74;99430.47;107755;1257;73003;-67
2023/11/14 04:15:48;;;;;;;51.30;25.70;;;;;;;7.65;58.35;99424.00;107755;1257;70320;-68
2023/11/14 04:18:15;;;;;;;50.30;25.80;;;;;;;7.50;58.95;99426.85;107730;1257;72456;-67
2023/11/14 04:20:42;;;;;;;52.00;26.60;;;;;;;7.41;59.02;99417.88;107747;1257;60972;-66
2023/11/14 04:23:08;;;;;;;46.70;24.30;;;;;;;7.38;59.21;99413.27;107734;1257;59647;-66
2023/11/14 04:25:35;;;;;;;42.40;22.10;;;;;;;7.39;59.06;99411.16;107692;1257;73102;-67
2023/11/14 04:28:02;;;;;;;39.90;20.30;;;;;;;7.31;59.58;99408.63;107749;1257;70133;-66
2023/11/14 04:30:29;;;;;;;34.80;19.30;;;;;;;7.31;60.05;99415.27;107735;1257;73189;-66
2023/11/14 04:32:56;;;;;;;38.60;22.10;;;;;;;7.43;59.60;99405.07;107746;1257;61012;-68
2023/11/14 04:35:23;;;;;;;38.80;19.70;;;;;;;7.45;59.47;99401.68;107756;1257;59059;-66
2023/11/14 04:37:50;;;;;;;37.60;20.40;;;;;;;7.48;59.50;99400.89;107648;1258;59357;-66
2023/11/14 04:40:17;;;;;;;40.70;20.50;;;;;;;7.46;59.11;99404.80;107635;1259;70377;-66
2023/11/14 04:42:45;;;;;;;40.40;20.00;;;;;;;7.49;58.94;99403.98;107595;1259;72435;-66
2023/11/14 04:45:13;;;;;;;40.00;21.00;;;;;;;7.52;58.96;99400.23;107615;1259;60924;-68
2023/11/14 04:47:39;;;;;;;33.40;19.80;;;;;;;7.45;58.87;99404.13;107620;1259;59495;-66
2023/11/14 04:50:06;;;;;;;40.00;20.80;;;;;;;7.37;58.92;99401.78;107570;1259;73029;-67
2023/11/14 04:52:37;;;;;;;;;;;;;;;7.45;58.70;99395.59;108013;1258;69700;-67
2023/11/14 04:55:04;;;;;;;33.20;18.40;;;;;;;7.37;59.16;99400.73;107997;1256;71464;-67
2023/11/14 04:57:31;;;;;;;33.80;18.00;;;;;;;7.32;59.71;99405.48;107984;1255;60970;-67
2023/11/14 04:59:57;;;;;;;39.00;19.90;;;;;;;7.39;59.68;99399.61;107961;1254;59542;-67
2023/11/14 05:02:24;;;;;;;31.20;18.40;;;;;;;7.41;59.54;99402.52;108050;1254;73765;-67
2023/11/14 05:04:50;;;;;;;37.90;20.60;;;;;;;7.49;59.34;99400.49;108075;1253;70237;-67
2023/11/14 05:07:17;;;;;;;31.70;17.90;;;;;;;7.46;59.11;99404.61;108090;1254;72682;-66
2023/11/14 05:09:43;;;;;;;33.50;19.30;;;;;;;7.57;58.67;99412.45;108061;1255;61110;-66
2023/11/14 05:12:10;;;;;;;35.20;19.10;;;;;;;7.52;58.61;99412.10;108092;1254;59485;-66
2023/11/14 05:14:37;;;;;;;33.20;19.20;;;;;;;7.58;58.19;99412.21;108061;1254;59548;-66
2023/11/14 05:17:05;;;;;;;39.30;20.30;;;;;;;7.76;57.55;99405.27;108044;1254;70390;-66
2023/11/14 05:19:31;;;;;;;41.00;20.70;;;;;;;7.82;57.39;99403.85;108000;1254;72466;-66
2023/11/14 05:21:58;;;;;;;39.10;21.00;;;;;;;7.86;57.57;99401.25;107993;1254;59965;-66
2023/11/14 05:24:24;;;;;;;41.50;23.10;;;;;;;7.85;57.69;99405.29;107981;1254;59627;-66
2023/11/14 05:26:51;;;;;;;39.30;21.30;;;;;;;7.67;58.25;99405.77;107995;1254;59145;-67
2023/11/14 05:29:18;;;;;;;39.10;21.70;;;;;;;7.66;58.28;99403.18;108036;1254;70507;-67
2023/11/14 05:31:45;;;;;;;49.60;23.30;;;;;;;7.68;58.17;99398.05;108006;1254;72381;-66
2023/11/14 05:34:14;;;;;;;41.60;20.80;;;;;;;7.79;58.02;99397.64;107995;1256;60999;-66
2023/11/14 05:36:41;;;;;;;37.30;20.70;;;;;;;7.81;58.07;99394.25;108001;1254;59347;-68
2023/11/14 05:39:07;;;;;;;36.80;19.80;;;;;;;7.84;57.93;99390.83;108028;1253;59663;-67
2023/11/14 05:41:36;;;;;;;37.60;19.20;;;;;;;7.71;58.37;99381.87;108012;1254;70080;-67
2023/11/14 05:44:03;;;;;;;34.40;16.20;;;;;;;7.70;58.45;99376.67;108008;1254;71699;-67
2023/11/14 05:46:30;;;;;;;30.00;17.60;;;;;;;7.62;58.32;99373.13;108040;1254;61348;-67
2023/11/14 05:48:57;;;;;;;33.70;18.20;;;;;;;7.80;58.06;99367.39;108065;1254;60356;-67
2023/11/14 05:51:24;;;;;;;28.50;16.40;;;;;;;7.86;57.83;99365.23;108155;1254;73619;-67
2023/11/14 05:53:51;;;;;;;31.70;18.10;;;;;;;7.87;57.69;99366.40;108062;1254;70150;-67
2023/11/14 05:56:18;;;;;;;37.10;19.50;;;;;;;8.01;57.24;99373.91;108045;1254;70258;-67
2023/11/14 05:58:45;;;;;;;33.20;18.60;;;;;;;8.11;56.86;99379.81;107986;1254;59733;-65
2023/11/14 06:01:11;;;;;;;39.20;20.00;;;;;;;8.26;56.42;99383.63;108011;1254;60220;-65
2023/11/14 06:03:38;;;;;;;42.90;20.40;;;;;;;8.32;56.34;99384.42;108000;1254;73185;-68
2023/11/14 06:06:06;;;;;;;40.60;19.60;;;;;;;8.50;56.41;99376.73;107970;1254;71458;-67
2023/11/14 06:08:33;;;;;;;36.30;20.80;;;;;;;8.95;56.41;99369.29;107989;1254;71615;-68
2023/11/14 06:11:00;;;;;;;34.80;19.30;;;;;;;9.50;55.37;99363.20;108041;1253;61254;-67
2023/11/14 06:13:26;;;;;;;31.10;18.30;;;;;;;10.19;54.17;99353.54;108067;1254;59527;-68
2023/11/14 06:15:53;;;;;;;30.80;17.50;;;;;;;10.74;53.02;99348.23;108088;1254;70978;-68
2023/11/14 06:18:20;;;;;;;30.50;16.70;;;;;;;11.34;51.10;99347.08;108074;1254;70197;-67
2023/11/14 06:20:47;;;;;;;28.10;15.80;;;;;;;11.98;49.27;99347.02;108052;1254;72623;-67
2023/11/14 06:23:13;;;;;;;23.90;13.40;;;;;;;12.29;47.78;99347.22;108073;1254;59740;-68
2023/11/14 06:25:40;;;;;;;25.50;14.60;;;;;;;12.36;46.65;99349.86;108038;1254;59632;-67
2023/11/14 06:28:07;;;;;;;26.70;14.70;;;;;;;12.46;46.54;99352.06;107994;1254;71730;-67
2023/11/14 06:30:35;;;;;;;24.00;12.90;;;;;;;12.43;46.41;99351.02;108012;1254;70114;-67
2023/11/14 06:33:03;;;;;;;26.30;14.40;;;;;;;12.24;46.22;99350.50;107968;1254;72306;-67
2023/11/14 06:35:30;;;;;;;22.80;13.20;;;;;;;12.01;46.00;99351.83;108006;1254;61073;-67
2023/11/14 06:37:56;;;;;;;25.20;14.60;;;;;;;11.68;46.48;99353.58;108036;1254;60156;-67
2023/11/14 06:40:23;;;;;;;28.10;15.40;;;;;;;11.54;46.89;99353.42;108004;1253;72644;-67
2023/11/14 06:42:50;;;;;;;30.40;15.30;;;;;;;11.28;47.26;99345.66;108019;1254;59634;-67
2023/11/14 06:45:17;;;;;;;30.00;15.50;;;;;;;10.94;47.99;99334.05;107979;1254;72438;-67
2023/11/14 06:47:44;;;;;;;28.10;14.90;;;;;;;10.89;48.56;99327.48;108041;1254;61007;-67
2023/11/14 06:50:11;;;;;;;25.40;14.70;;;;;;;10.73;48.95;99331.48;108045;1254;60354;-67
2023/11/14 06:52:43;;;;;;;26.90;15.20;;;;;;;10.70;49.10;99324.58;108080;1254;72962;-67
2023/11/14 06:55:10;;;;;;;26.40;15.00;;;;;;;10.61;49.22;99323.77;107996;1253;68897;-67
2023/11/14 06:57:36;;;;;;;28.20;15.20;;;;;;;10.63;49.27;99316.49;108030;1253;59096;-67
2023/11/14 07:00:05;;;;;;;35.00;18.00;;;;;;;10.60;49.55;99313.15;108038;1253;61615;-68
2023/11/14 07:02:32;;;;;;;31.80;16.40;;;;;;;10.61;49.64;99313.42;108047;1253;60298;-67
2023/11/14 07:04:59;;;;;;;29.20;14.30;;;;;;;10.51;49.92;99307.43;108065;1253;72847;-68
2023/11/14 07:07:26;;;;;;;28.60;15.10;;;;;;;10.46;50.18;99303.13;107956;1253;70253;-68
2023/11/14 07:09:52;;;;;;;31.00;16.10;;;;;;;10.29;50.52;99299.36;108013;1253;72554;-67
2023/11/14 07:12:20;;;;;;;32.30;15.20;;;;;;;10.33;50.58;99297.98;108016;1253;59952;-68
2023/11/14 07:14:46;;;;;;;27.50;14.10;;;;;;;10.39;50.54;99301.05;108031;1253;60264;-68
2023/11/14 07:17:13;;;;;;;28.80;13.50;;;;;;;10.39;50.81;99298.41;108019;1253;71894;-68
2023/11/14 07:19:39;;;;;;;27.60;14.70;;;;;;;10.47;50.63;99294.68;108049;1257;69341;-66
2023/11/14 07:22:07;;;;;;;29.20;15.10;;;;;;;10.47;50.65;99293.42;108040;1253;72537;-67
2023/11/14 07:24:33;;;;;;;29.70;15.10;;;;;;;10.31;50.97;99281.90;108016;1253;59939;-67
2023/11/14 07:27:01;;;;;;;28.90;14.30;;;;;;;10.36;50.84;99278.87;108042;1257;59483;-67
2023/11/14 07:29:27;;;;;;;28.40;14.20;;;;;;;10.53;50.24;99280.88;108041;1255;72863;-67
2023/11/14 07:31:54;;;;;;;28.50;14.90;;;;;;;10.58;50.48;99280.78;108015;1253;68999;-65
2023/11/14 07:34:22;;;;;;;31.60;15.00;;;;;;;10.33;50.92;99275.00;108043;1255;72431;-67
2023/11/14 07:36:49;;;;;;;25.70;13.70;;;;;;;10.32;50.90;99269.23;108056;1253;61097;-67
2023/11/14 07:39:16;;;;;;;29.00;14.30;;;;;;;10.44;50.44;99265.67;108033;1253;60441;-67
2023/11/14 07:41:43;;;;;;;25.60;14.30;;;;;;;10.51;50.20;99268.13;108007;1253;74158;-67
2023/11/14 07:44:10;;;;;;;31.80;14.90;;;;;;;10.69;50.13;99260.39;108036;1253;70260;-67
2023/11/14 07:46:38;;;;;;;25.50;13.80;;;;;;;10.56;50.08;99251.20;107992;1253;72553;-68
2023/11/14 07:49:05;;;;;;;24.90;12.90;;;;;;;10.67;50.04;99253.79;108103;1253;60361;-67
2023/11/14 07:51:33;;;;;;;32.00;16.10;;;;;;;10.66;49.97;99242.59;108062;1253;60389;-66
2023/11/14 07:53:59;;;;;;;30.70;14.00;;;;;;;10.70;49.89;99235.41;108115;1253;72644;-67
2023/11/14 07:56:26;;;;;;;28.10;13.90;;;;;;;10.59;50.11;99230.15;108092;1253;70328;-66
2023/11/14 07:58:53;;;;;;;31.80;13.90;;;;;;;10.76;49.76;99220.16;108031;1253;71573;-67
2023/11/14 08:01:20;;;;;;;32.50;15.40;;;;;;;10.59;50.35;99217.86;108087;1253;60882;-67
2023/11/14 08:03:48;;;;;;;24.90;13.50;;;;;;;10.59;50.42;99212.06;108024;1253;60139;-67
2023/11/14 08:06:15;;;;;;;25.70;12.20;;;;;;;10.63;50.49;99207.16;108015;1253;73740;-67
2023/11/14 08:08:44;;;;;;;22.70;11.80;;;;;;;10.72;50.33;99205.96;108082;1253;70245;-68
2023/11/14 08:15:03;;;;;;;23.50;12.50;;;;;;;11.00;49.77;99196.38;107992;1253;60974;-67
2023/11/14 08:17:30;;;;;;;22.80;12.80;;;;;;;10.92;49.81;99194.77;107995;1253;60457;-67
2023/11/14 08:20:00;;;;;;;26.10;11.80;;;;;;;11.19;49.35;99202.09;108011;1253;73935;-67
2023/11/14 08:22:27;;;;;;;21.00;11.50;;;;;;;11.37;48.76;99202.65;107918;1256;70430;-67
2023/11/14 08:24:53;;;;;;;21.30;10.30;;;;;;;11.38;48.51;99209.97;107932;1256;73020;-67
2023/11/14 08:27:20;;;;;;;18.40;10.90;;;;;;;11.40;48.34;99209.88;108001;1253;60994;-67
2023/11/14 08:29:49;;;;;;;20.90;11.10;;;;;;;11.48;48.30;99210.83;107926;1253;59328;-67
2023/11/14 08:32:16;;;;;;;20.60;11.20;;;;;;;11.43;48.29;99212.35;108018;1253;73886;-67
2023/11/14 08:34:43;;;;;;;20.70;11.40;;;;;;;11.46;48.34;99213.95;107954;1253;70044;-67
2023/11/14 08:37:09;;;;;;;23.20;12.10;;;;;;;11.58;48.13;99220.67;107961;1257;72682;-67
2023/11/14 08:39:36;;;;;;;22.50;10.80;;;;;;;11.80;47.81;99225.77;108054;1253;61146;-68
2023/11/14 08:42:03;;;;;;;19.70;10.50;;;;;;;11.95;47.56;99238.34;108039;1253;60300;-67
2023/11/14 08:44:30;;;;;;;24.50;12.10;;;;;;;11.99;47.54;99232.83;108025;1253;72599;-66
2023/11/14 08:46:57;;;;;;;22.30;12.30;;;;;;;11.99;47.48;99225.09;108016;1253;70340;-67
2023/11/14 08:49:24;;;;;;;21.40;11.80;;;;;;;12.03;47.44;99223.10;107977;1253;72925;-66
2023/11/14 08:51:52;;;;;;;22.30;11.70;;;;;;;12.14;47.25;99223.52;107977;1253;61553;-67
2023/11/14 08:54:19;;;;;;;16.10;8.50;;;;;;;12.12;47.05;99216.07;108469;1253;60179;-66
2023/11/14 08:56:46;;;;;;;15.20;9.30;;;;;;;12.22;46.49;99204.23;108045;1253;73528;-68
2023/11/14 08:59:15;;;;;;;22.20;10.90;;;;;;;12.48;45.76;99200.55;108013;1253;70699;-68
2023/11/14 09:01:44;;;;;;;21.30;10.60;;;;;;;12.63;45.22;99190.72;107977;1253;73819;-67
2023/11/14 09:04:12;;;;;;;20.20;9.80;;;;;;;12.79;44.43;99183.73;108315;1253;60238;-67
2023/11/14 09:06:39;;;;;;;18.60;9.10;;;;;;;12.47;44.48;99176.49;108114;1253;60521;-68
2023/11/14 09:09:07;;;;;;;19.40;9.70;;;;;;;12.44;44.74;99170.52;108110;1257;73625;-67
2023/11/14 09:11:35;;;;;;;18.60;9.90;;;;;;;12.86;43.97;99162.85;108150;1253;70084;-67
2023/11/14 09:14:02;;;;;;;16.80;8.40;;;;;;;12.88;43.51;99158.16;108073;1253;72957;-67
2023/11/14 09:16:29;;;;;;;16.50;9.30;;;;;;;12.95;42.93;99151.23;108072;1253;61271;-67
2023/11/14 09:18:57;;;;;;;17.20;9.10;;;;;;;13.23;42.36;99135.91;108060;1253;60420;-67
2023/11/14 09:21:25;;;;;;;19.60;9.50;;;;;;;13.30;42.13;99124.73;108097;1253;73180;-66
2023/11/14 09:23:51;;;;;;;15.10;7.90;;;;;;;13.23;42.35;99123.36;108022;1253;70162;-67
2023/11/14 09:26:19;;;;;;;16.60;8.50;;;;;;;13.10;42.12;99120.30;108060;1253;71212;-66
2023/11/14 09:28:46;;;;;;;16.60;8.60;;;;;;;13.15;42.08;99117.71;108155;1253;60544;-68
2023/11/14 09:31:14;;;;;;;19.10;8.50;;;;;;;13.31;41.44;99118.52;108077;1253;60181;-68
2023/11/14 09:33:45;;;;;;;17.30;9.10;;;;;;;13.14;41.48;99127.45;108080;1253;73737;-67
2023/11/14 09:36:14;;;;;;;20.20;9.50;;;;;;;13.29;41.72;99129.88;108107;1253;70532;-67
2023/11/14 09:38:41;;;;;;;15.10;8.20;;;;;;;13.31;41.67;99129.59;108137;1253;71424;-67
2023/11/14 09:41:08;;;;;;;14.20;7.50;;;;;;;13.32;41.19;99129.88;108085;1253;60434;-67
2023/11/14 09:43:35;;;;;;;15.30;8.00;;;;;;;13.27;41.57;99124.52;108054;1253;60383;-67
2023/11/14 09:46:01;;;;;;;15.00;8.10;;;;;;;13.11;40.90;99122.22;108069;1257;73861;-67
2023/11/14 09:48:28;;;;;;;12.50;7.30;;;;;;;12.91;40.79;99114.32;108063;1253;71675;-67
2023/11/14 09:50:55;;;;;;;11.60;6.40;;;;;;;12.94;40.70;99105.48;108051;1253;60610;-68
2023/11/14 09:53:26;;;;;;;14.30;8.00;;;;;;;13.05;40.72;99108.47;108099;1253;60548;-67
2023/11/14 09:55:53;;;;;;;13.70;6.70;;;;;;;13.38;40.64;99101.29;108046;1253;60502;-68
2023/11/14 09:58:21;;;;;;;14.40;7.60;;;;;;;13.15;40.47;99097.44;107963;1253;73546;-67
2023/11/14 10:00:48;;;;;;;13.40;7.00;;;;;;;13.28;40.52;99090.48;108050;1255;70112;-67
2023/11/14 10:03:18;;;;;;;17.30;7.80;;;;;;;13.33;40.44;99087.70;107988;1256;71651;-67
2023/11/14 10:05:45;;;;;;;13.60;7.50;;;;;;;13.06;41.08;99084.80;107979;1258;61160;-67
2023/11/14 10:08:13;;;;;;;13.40;7.40;;;;;;;12.62;41.94;99078.43;107967;1253;61452;-67
2023/11/14 10:11:02;;;;;;;15.20;7.90;;;;;;;12.73;42.16;99080.90;107990;1253;72531;-67
2023/11/14 10:13:30;;;;;;;15.30;7.70;;;;;;;13.00;41.64;99076.05;107949;1255;70323;-67
2023/11/14 10:16:13;;;;;;;16.20;8.30;;;;;;;13.29;41.08;99068.55;107950;1255;73669;-68
2023/11/14 10:18:40;;;;;;;16.20;8.00;;;;;;;13.21;41.09;99059.19;107975;1255;62297;-67
2023/11/14 10:21:27;;;;;;;15.60;8.20;;;;;;;12.88;41.75;99042.11;107908;1258;60292;-67
2023/11/14 10:23:57;;;;;;;14.00;8.10;;;;;;;12.90;41.91;99035.41;107876;1259;74149;-67
2023/11/14 10:26:25;;;;;;;15.60;7.60;;;;;;;13.07;41.74;99034.89;107926;1256;69307;-65
2023/11/14 10:28:55;;;;;;;12.90;6.20;;;;;;;12.93;42.13;99030.66;107943;1254;72604;-67
2023/11/14 10:31:32;;;;;;;;;;;;;;;13.05;42.42;99029.36;107929;1254;62428;-66
2023/11/14 10:33:59;;;;;;;14.10;7.30;;;;;;;12.96;42.51;99023.98;107969;1255;60291;-66
2023/11/14 10:36:26;;;;;;;15.70;8.90;;;;;;;12.92;43.00;99018.57;107947;1254;71568;-68
2023/11/14 10:39:03;;;;;;;15.40;7.60;;;;;;;13.06;42.94;99013.66;108016;1255;70041;-67
2023/11/14 10:41:33;;;;;;;16.30;8.50;;;;;;;12.98;42.95;99009.39;107982;1254;72485;-67
2023/11/14 10:44:10;;;;;;;17.00;7.50;;;;;;;12.88;43.54;99004.55;107878;1254;60711;-67
2023/11/14 10:46:36;;;;;;;13.60;7.80;;;;;;;12.94;43.56;98997.48;107977;1253;60323;-67
2023/11/14 10:49:08;;;;;;;13.80;7.00;;;;;;;12.97;43.57;98995.02;107932;1256;72673;-67
2023/11/14 10:51:36;;;;;;;15.10;7.40;;;;;;;12.76;44.56;98990.71;107991;1255;71677;-67
2023/11/14 10:54:06;;;;;;;13.20;7.70;;;;;;;12.74;45.34;98999.30;107989;1258;71182;-67
2023/11/14 10:56:36;;;;;;;13.70;6.20;;;;;;;12.77;45.92;98994.32;108016;1254;60788;-68
2023/11/14 10:59:15;;;;;;;11.50;5.60;;;;;;;12.54;47.09;98993.33;108038;1256;60199;-68
2023/11/14 11:01:45;;;;;;;11.40;6.60;;;;;;;12.25;48.07;98986.18;108179;1254;73834;-68
2023/11/14 11:04:18;;;;;;;14.00;7.70;;;;;;;12.35;49.02;98985.55;108204;1254;70423;-67
2023/11/14 11:06:45;;;;;;;9.90;5.90;;;;;;;12.37;49.14;98981.40;108212;1253;72759;-67
2023/11/14 11:09:15;;;;;;;10.70;5.90;;;;;;;12.21;49.78;98982.54;108247;1253;62246;-67
2023/11/14 11:11:44;;;;;;;11.30;6.90;;;;;;;12.10;50.74;98974.45;108071;1253;61375;-67
2023/11/14 11:14:13;;;;;;;10.50;6.60;;;;;;;12.20;50.94;98969.43;108275;1252;73867;-67
2023/11/14 11:16:46;;;;;;;13.60;7.10;;;;;;;12.05;51.54;98968.37;108243;1254;71395;-67
2023/11/14 11:19:25;;;;;;;12.50;6.20;;;;;;;12.03;52.09;98957.83;108146;1253;72413;-71
2023/11/14 11:22:15;;;;;;;12.50;6.60;;;;;;;11.78;52.96;98950.17;108169;1254;60943;-67